Time;durP1;ratioP1;P1;durP2;ratioP2;P2;SDS_P1;SDS_P2;PMS_P1;PMS_P2;Temp;Humidity;BMP_temperature;BMP_pressure;BME280_temperature;BME280_humidity;BME280_pressure;Samples;Min_cycle;Max_cycle;Signal;HPM_P1;HPM_P2
2021/12/26 00:00:22;;;;;;;9.27;8.30;;;1.00;99.90;;;;;;5029663;28;20220;-74
2021/12/26 00:02:48;;;;;;;13.20;8.80;;;0.90;99.90;;;;;;5029012;28;20185;-74
2021/12/26 00:05:14;;;;;;;9.77;8.13;;;0.90;99.90;;;;;;5030517;28;20183;-74
2021/12/26 00:07:40;;;;;;;9.87;8.60;;;0.80;99.90;;;;;;5027183;28;20184;-74
2021/12/26 00:10:08;;;;;;;10.10;8.60;;;0.80;99.90;;;;;;5048134;28;20219;-74
2021/12/26 00:12:34;;;;;;;11.03;8.57;;;0.70;99.90;;;;;;5025723;28;20889;-74
2021/12/26 00:15:00;;;;;;;11.33;8.83;;;0.70;99.90;;;;;;5030647;28;20259;-74
2021/12/26 00:17:25;;;;;;;11.03;9.13;;;0.60;99.90;;;;;;5030375;28;20211;-74
2021/12/26 00:19:51;;;;;;;9.63;8.63;;;0.60;99.90;;;;;;5030257;28;20275;-75
2021/12/26 00:22:17;;;;;;;10.47;8.70;;;0.70;99.90;;;;;;5030208;28;20275;-74
2021/12/26 00:24:44;;;;;;;11.63;9.93;;;0.70;99.90;;;;;;5027490;28;20466;-74
2021/12/26 00:27:10;;;;;;;9.33;8.33;;;0.60;99.90;;;;;;5033020;28;20182;-74
2021/12/26 00:29:35;;;;;;;11.83;8.40;;;0.60;99.90;;;;;;5033175;28;20286;-74
2021/12/26 00:32:01;;;;;;;11.17;7.97;;;0.70;99.90;;;;;;5033075;28;20205;-75
2021/12/26 00:34:27;;;;;;;9.20;8.30;;;0.60;99.90;;;;;;5034826;28;20578;-74
2021/12/26 00:36:52;;;;;;;10.43;8.20;;;0.70;99.90;;;;;;5036937;28;20223;-74
2021/12/26 00:39:18;;;;;;;9.37;7.93;;;0.80;99.90;;;;;;5032283;28;20829;-75
2021/12/26 00:41:44;;;;;;;10.10;8.20;;;0.80;99.90;;;;;;5035830;28;20173;-74
2021/12/26 00:44:10;;;;;;;10.87;8.53;;;0.80;99.90;;;;;;5033270;28;20210;-76
2021/12/26 00:46:36;;;;;;;10.00;9.00;;;0.80;99.90;;;;;;5027479;28;20181;-75
2021/12/26 00:49:04;;;;;;;9.87;8.40;;;0.70;99.90;;;;;;5059587;28;20208;-74
2021/12/26 00:51:30;;;;;;;9.67;8.07;;;0.70;99.90;;;;;;5029560;28;20203;-75
2021/12/26 00:53:55;;;;;;;8.73;7.83;;;0.70;99.90;;;;;;5027556;28;20664;-74
2021/12/26 00:56:21;;;;;;;8.50;7.60;;;0.80;99.90;;;;;;5028628;28;20196;-74
2021/12/26 00:58:47;;;;;;;10.57;8.23;;;0.80;99.90;;;;;;5029981;28;20203;-74
2021/12/26 01:01:14;;;;;;;10.13;8.27;;;0.80;99.90;;;;;;5031552;28;20613;-74
2021/12/26 01:03:39;;;;;;;9.40;8.07;;;0.80;99.90;;;;;;5031062;28;20682;-73
2021/12/26 01:06:06;;;;;;;11.90;8.77;;;0.90;99.90;;;;;;5032135;28;20184;-73
2021/12/26 01:08:37;;;;;;;9.80;8.10;;;0.80;99.90;;;;;;5023052;28;20254;-74
2021/12/26 01:11:17;;;;;;;9.50;8.60;;;0.80;99.90;;;;;;5029892;28;20204;-75
2021/12/26 01:13:44;;;;;;;9.37;7.50;;;0.80;99.90;;;;;;5027240;28;20218;-74
2021/12/26 01:16:12;;;;;;;10.27;8.73;;;0.80;99.90;;;;;;5028428;28;20173;-73
2021/12/26 01:18:42;;;;;;;7.90;7.10;;;0.80;99.90;;;;;;5030529;28;20212;-74
2021/12/26 01:21:19;;;;;;;10.73;8.80;;;0.70;99.90;;;;;;5025518;28;20292;-74
2021/12/26 01:23:50;;;;;;;9.30;8.27;;;0.70;99.90;;;;;;5031088;28;20639;-74
2021/12/26 01:26:16;;;;;;;11.23;8.43;;;0.70;99.90;;;;;;5034259;28;20190;-74
2021/12/26 01:28:42;;;;;;;10.43;8.20;;;0.70;99.90;;;;;;5031855;28;20202;-73
2021/12/26 01:31:07;;;;;;;11.60;8.60;;;0.80;99.90;;;;;;5026820;28;20556;-73
2021/12/26 01:33:34;;;;;;;10.50;9.47;;;0.90;99.90;;;;;;5023898;28;20207;-74
2021/12/26 01:35:59;;;;;;;11.63;9.60;;;0.90;99.90;;;;;;5030444;28;20181;-74
2021/12/26 01:38:25;;;;;;;10.03;9.03;;;0.80;99.90;;;;;;5024510;28;20369;-74
2021/12/26 01:40:54;;;;;;;11.50;10.03;;;0.80;99.90;;;;;;5023239;28;20201;-74
2021/12/26 01:43:23;;;;;;;9.67;8.67;;;0.80;99.90;;;;;;5026845;28;20180;-74
2021/12/26 01:45:51;;;;;;;10.03;8.90;;;0.80;99.90;;;;;;5024465;28;20272;-75
2021/12/26 01:48:17;;;;;;;11.37;8.83;;;0.90;99.90;;;;;;5028942;28;20180;-74
2021/12/26 01:50:44;;;;;;;9.00;8.10;;;1.00;99.90;;;;;;5029774;28;20326;-74
2021/12/26 01:53:10;;;;;;;9.57;8.67;;;0.90;99.90;;;;;;5026019;28;20221;-74
2021/12/26 01:55:46;;;;;;;9.90;8.90;;;1.00;99.90;;;;;;5029298;28;20191;-75
2021/12/26 01:58:30;;;;;;;10.37;9.33;;;1.00;99.90;;;;;;5026119;28;20179;-74
2021/12/26 02:01:03;;;;;;;10.67;9.60;;;1.00;99.90;;;;;;5031108;28;20302;-74
2021/12/26 02:03:29;;;;;;;10.00;9.00;;;0.90;99.90;;;;;;5026890;28;20193;-74
2021/12/26 02:05:55;;;;;;;9.03;8.10;;;0.90;99.90;;;;;;5027001;28;20235;-73
2021/12/26 02:08:21;;;;;;;10.03;9.00;;;0.80;99.90;;;;;;5024363;28;20202;-74
2021/12/26 02:10:47;;;;;;;11.00;9.03;;;0.70;99.90;;;;;;5020063;28;20201;-74
2021/12/26 02:13:13;;;;;;;10.73;8.10;;;0.70;99.90;;;;;;5021245;28;20216;-73
2021/12/26 02:15:39;;;;;;;9.67;8.47;;;0.80;99.90;;;;;;5030682;28;20260;-74
2021/12/26 02:18:07;;;;;;;10.53;8.77;;;0.90;99.90;;;;;;5030283;28;20255;-75
2021/12/26 02:23:19;;;;;;;10.77;8.73;;;0.80;99.90;;;;;;5020047;28;20184;-74
2021/12/26 02:28:22;;;;;;;9.50;8.57;;;0.90;99.90;;;;;;5029919;28;20172;-73
2021/12/26 02:30:49;;;;;;;9.90;8.90;;;0.90;99.90;;;;;;5027488;28;20330;-74
2021/12/26 02:33:16;;;;;;;10.13;8.57;;;1.00;99.90;;;;;;5026175;28;20204;-74
2021/12/26 02:35:42;;;;;;;14.17;8.60;;;1.10;99.90;;;;;;5026060;28;20538;-74
2021/12/26 02:38:09;;;;;;;11.80;9.50;;;1.00;99.90;;;;;;5022626;28;20192;-74
2021/12/26 02:40:35;;;;;;;10.67;8.87;;;1.10;99.90;;;;;;5030348;28;20207;-75
2021/12/26 02:43:01;;;;;;;11.07;8.13;;;1.10;99.90;;;;;;5034876;28;20185;-74
2021/12/26 02:45:27;;;;;;;9.67;8.67;;;1.10;99.90;;;;;;5028400;28;20216;-74
2021/12/26 02:47:53;;;;;;;11.33;8.83;;;1.20;99.90;;;;;;5025871;28;20618;-74
2021/12/26 02:50:21;;;;;;;10.57;9.53;;;1.20;99.90;;;;;;5030945;28;20211;-74
2021/12/26 02:52:47;;;;;;;9.13;8.23;;;1.10;99.90;;;;;;5028874;28;20697;-73
2021/12/26 02:55:15;;;;;;;10.33;8.53;;;1.10;99.90;;;;;;5028670;28;20215;-74
2021/12/26 02:57:45;;;;;;;10.23;9.03;;;1.10;99.90;;;;;;5025458;28;20177;-74
2021/12/26 03:00:14;;;;;;;10.47;8.33;;;1.00;99.90;;;;;;5032336;28;20208;-74
2021/12/26 03:02:41;;;;;;;10.33;9.23;;;1.10;99.90;;;;;;5027868;28;20177;-74
2021/12/26 03:05:07;;;;;;;9.87;8.27;;;1.20;99.90;;;;;;5030188;28;20834;-74
2021/12/26 03:07:33;;;;;;;9.70;8.63;;;1.10;99.90;;;;;;5028773;28;20211;-74
2021/12/26 03:10:00;;;;;;;9.17;7.93;;;1.10;99.90;;;;;;5024521;28;20644;-74
2021/12/26 03:12:31;;;;;;;8.37;7.57;;;1.10;99.90;;;;;;5030679;28;20227;-75
2021/12/26 03:14:57;;;;;;;8.53;7.73;;;1.20;99.90;;;;;;5028246;28;20188;-74
2021/12/26 03:17:22;;;;;;;9.53;7.87;;;1.20;99.90;;;;;;5030211;28;20181;-74
2021/12/26 03:19:48;;;;;;;8.90;8.00;;;1.20;99.90;;;;;;5030050;28;20668;-75
2021/12/26 03:22:15;;;;;;;9.73;8.03;;;1.20;99.90;;;;;;5034184;28;20643;-74
2021/12/26 03:24:43;;;;;;;8.93;7.87;;;1.20;99.90;;;;;;5033557;28;20235;-74
2021/12/26 03:27:09;;;;;;;9.67;8.30;;;1.40;99.90;;;;;;5029316;28;20217;-75
2021/12/26 03:29:35;;;;;;;10.53;8.67;;;1.40;99.90;;;;;;5028303;28;20200;-74
2021/12/26 03:32:01;;;;;;;10.70;9.60;;;1.40;99.90;;;;;;5026150;28;20297;-73
2021/12/26 03:34:27;;;;;;;10.07;8.43;;;1.40;99.90;;;;;;5030652;28;20214;-74
2021/12/26 03:36:56;;;;;;;9.63;8.53;;;1.40;99.90;;;;;;5026303;28;20216;-74
2021/12/26 03:39:22;;;;;;;9.10;8.20;;;1.30;99.90;;;;;;5023938;28;20180;-75
2021/12/26 03:41:49;;;;;;;8.80;7.87;;;1.20;99.90;;;;;;5026326;28;20177;-74
2021/12/26 03:44:15;;;;;;;8.80;7.57;;;1.30;99.90;;;;;;5030066;28;20658;-75
2021/12/26 03:46:41;;;;;;;11.27;9.20;;;1.20;99.90;;;;;;5026554;28;20178;-74
2021/12/26 03:49:07;;;;;;;9.23;8.33;;;1.20;99.90;;;;;;5026287;28;20194;-75
2021/12/26 03:51:34;;;;;;;10.97;8.53;;;1.20;99.90;;;;;;5026583;28;20183;-74
2021/12/26 03:54:00;;;;;;;8.77;7.87;;;1.20;99.90;;;;;;5033993;28;20513;-75
2021/12/26 03:56:27;;;;;;;8.87;8.07;;;1.20;99.90;;;;;;5024670;28;20184;-75
2021/12/26 03:58:53;;;;;;;10.33;9.10;;;1.30;99.90;;;;;;5028959;28;20176;-74
2021/12/26 04:01:18;;;;;;;10.07;9.03;;;1.20;99.90;;;;;;5028941;28;20204;-74
2021/12/26 04:03:45;;;;;;;11.60;9.07;;;1.20;99.90;;;;;;5022807;28;20194;-74
2021/12/26 04:06:11;;;;;;;9.43;8.20;;;1.20;99.90;;;;;;5026172;28;20227;-74
2021/12/26 04:08:36;;;;;;;9.80;8.47;;;1.20;99.90;;;;;;5027188;28;20693;-74
2021/12/26 04:11:02;;;;;;;10.30;8.60;;;1.20;99.90;;;;;;5031084;28;20196;-74
2021/12/26 04:13:28;;;;;;;10.10;8.73;;;1.10;99.90;;;;;;5026534;28;20195;-74
2021/12/26 04:15:54;;;;;;;9.33;8.37;;;1.00;99.90;;;;;;5030602;28;20192;-74
2021/12/26 04:18:20;;;;;;;9.83;8.10;;;1.10;99.90;;;;;;5031356;28;20185;-74
2021/12/26 04:20:46;;;;;;;8.70;7.87;;;1.10;99.90;;;;;;5029707;28;20208;-74
2021/12/26 04:23:14;;;;;;;9.70;8.70;;;1.10;99.90;;;;;;5045437;28;20199;-74
2021/12/26 04:25:41;;;;;;;8.97;8.07;;;1.00;99.90;;;;;;5029734;28;20271;-74
2021/12/26 04:28:07;;;;;;;8.80;7.80;;;1.00;99.90;;;;;;5030015;28;20188;-74
2021/12/26 04:30:33;;;;;;;9.43;8.37;;;1.00;99.90;;;;;;5033032;28;20207;-74
2021/12/26 04:33:00;;;;;;;11.33;9.07;;;1.00;99.90;;;;;;5026094;28;20232;-74
2021/12/26 04:35:27;;;;;;;9.10;8.20;;;1.00;99.90;;;;;;5032745;28;20621;-74
2021/12/26 04:37:53;;;;;;;10.10;9.00;;;1.00;99.90;;;;;;5031160;28;20559;-74
2021/12/26 04:40:19;;;;;;;9.87;8.87;;;1.00;99.90;;;;;;5033961;28;20208;-74
2021/12/26 04:42:47;;;;;;;9.80;8.80;;;0.90;99.90;;;;;;5027531;28;21589;-74
2021/12/26 04:45:14;;;;;;;9.47;8.10;;;0.90;99.90;;;;;;5029336;28;20285;-75
2021/12/26 04:47:42;;;;;;;9.23;8.23;;;0.90;99.90;;;;;;5033390;28;20182;-74
2021/12/26 04:50:12;;;;;;;9.47;8.50;;;0.90;99.90;;;;;;5032396;28;20213;-74
2021/12/26 04:52:43;;;;;;;9.20;8.23;;;0.90;99.90;;;;;;5032212;28;20218;-74
2021/12/26 04:55:10;;;;;;;10.37;8.50;;;0.80;99.90;;;;;;5038022;28;20286;-74
2021/12/26 04:57:35;;;;;;;10.20;9.13;;;0.80;99.90;;;;;;5026046;28;20201;-74
2021/12/26 05:00:03;;;;;;;11.63;9.17;;;0.80;99.90;;;;;;5032848;28;20212;-74
2021/12/26 05:02:30;;;;;;;9.43;8.53;;;0.80;99.90;;;;;;5026934;28;20224;-74
2021/12/26 05:04:55;;;;;;;11.97;8.90;;;0.80;99.90;;;;;;5021742;28;20227;-74
2021/12/26 05:07:21;;;;;;;10.40;8.63;;;0.80;99.90;;;;;;5030553;28;20573;-74
2021/12/26 05:09:48;;;;;;;9.23;8.20;;;0.90;99.90;;;;;;5028724;28;20743;-74
2021/12/26 05:12:14;;;;;;;9.30;8.30;;;0.90;99.90;;;;;;5038106;28;20208;-74
2021/12/26 05:14:39;;;;;;;9.20;7.97;;;0.90;99.90;;;;;;5037111;28;20188;-74
2021/12/26 05:17:05;;;;;;;10.47;9.03;;;0.80;99.90;;;;;;5032971;28;20199;-74
2021/12/26 05:19:31;;;;;;;10.30;9.20;;;0.80;99.90;;;;;;5028859;28;20570;-74
2021/12/26 05:21:56;;;;;;;12.13;10.23;;;0.80;99.90;;;;;;5034615;28;20293;-74
2021/12/26 05:24:22;;;;;;;9.57;8.60;;;0.80;99.90;;;;;;5027036;28;20686;-74
2021/12/26 05:26:47;;;;;;;10.50;8.80;;;0.80;99.90;;;;;;5028643;28;20267;-74
2021/12/26 05:29:13;;;;;;;9.97;8.40;;;1.00;99.90;;;;;;5028295;28;20226;-74
2021/12/26 05:31:39;;;;;;;10.33;8.33;;;1.00;99.90;;;;;;5021877;28;20216;-73
2021/12/26 05:34:04;;;;;;;10.63;8.97;;;1.00;99.90;;;;;;5030254;28;20187;-74
2021/12/26 05:36:30;;;;;;;10.47;8.57;;;0.90;99.90;;;;;;5022900;28;20220;-74
2021/12/26 05:38:57;;;;;;;10.27;9.17;;;0.90;99.90;;;;;;5033851;28;20188;-74
2021/12/26 05:41:22;;;;;;;9.67;8.67;;;0.90;99.90;;;;;;5019345;28;20197;-74
2021/12/26 05:43:48;;;;;;;10.67;9.57;;;0.90;99.90;;;;;;5029007;28;20655;-74
2021/12/26 05:46:14;;;;;;;12.27;10.30;;;1.00;99.90;;;;;;5027738;28;20183;-74
2021/12/26 05:48:39;;;;;;;11.60;10.17;;;1.00;99.90;;;;;;5032041;28;20180;-72
2021/12/26 05:51:05;;;;;;;11.73;10.53;;;1.20;99.90;;;;;;5023705;28;20211;-73
2021/12/26 05:53:31;;;;;;;11.80;10.60;;;1.20;99.90;;;;;;5021927;28;20213;-73
2021/12/26 05:55:56;;;;;;;12.73;10.83;;;1.20;99.90;;;;;;5035451;28;20207;-73
2021/12/26 05:58:22;;;;;;;14.23;11.50;;;1.20;99.90;;;;;;5030180;28;20177;-75
2021/12/26 06:00:47;;;;;;;12.13;10.70;;;1.20;99.90;;;;;;5021073;28;20226;-73
2021/12/26 06:03:13;;;;;;;12.87;11.40;;;1.30;99.90;;;;;;5026325;28;20224;-74
2021/12/26 06:05:39;;;;;;;12.90;10.83;;;1.30;99.90;;;;;;5031711;28;20180;-74
2021/12/26 06:08:05;;;;;;;11.53;10.33;;;1.30;99.90;;;;;;5028642;28;20644;-73
2021/12/26 06:10:30;;;;;;;12.20;10.70;;;1.30;99.90;;;;;;5029066;28;20211;-74
2021/12/26 06:12:56;;;;;;;11.53;10.33;;;1.30;99.90;;;;;;5023074;28;20220;-73
2021/12/26 06:15:22;;;;;;;12.27;10.97;;;1.40;99.90;;;;;;5022703;28;20288;-73
2021/12/26 06:17:47;;;;;;;11.23;10.03;;;1.40;99.90;;;;;;5029852;28;20176;-73
2021/12/26 06:20:15;;;;;;;11.77;10.43;;;1.40;99.90;;;;;;5029681;28;20208;-73
2021/12/26 06:22:46;;;;;;;11.87;10.63;;;1.30;99.90;;;;;;5028125;28;20188;-73
2021/12/26 06:25:14;;;;;;;12.17;10.00;;;1.30;99.90;;;;;;5025848;28;20177;-73
2021/12/26 06:27:40;;;;;;;12.57;10.73;;;1.30;99.90;;;;;;5020264;28;20525;-74
2021/12/26 06:30:07;;;;;;;11.03;9.60;;;1.40;99.90;;;;;;5039423;28;20208;-74
2021/12/26 06:32:33;;;;;;;12.80;10.97;;;1.40;99.90;;;;;;5028241;28;20233;-74
2021/12/26 06:35:01;;;;;;;11.40;10.10;;;1.40;99.90;;;;;;5023003;28;20594;-75
2021/12/26 06:37:27;;;;;;;14.43;11.27;;;1.40;99.90;;;;;;5017982;28;20216;-73
2021/12/26 06:39:53;;;;;;;12.00;10.33;;;1.40;99.90;;;;;;5024086;28;20590;-73
2021/12/26 06:42:19;;;;;;;13.53;12.13;;;1.40;99.90;;;;;;5029161;28;20188;-73
2021/12/26 06:44:44;;;;;;;11.17;10.07;;;1.40;99.90;;;;;;5025035;28;20185;-73
2021/12/26 06:47:10;;;;;;;13.30;11.87;;;1.40;99.90;;;;;;5031454;28;20188;-74
2021/12/26 06:49:36;;;;;;;13.50;11.93;;;1.50;99.90;;;;;;5026983;28;20701;-73
2021/12/26 06:52:02;;;;;;;12.40;10.80;;;1.30;99.90;;;;;;5026842;28;20216;-74
2021/12/26 06:54:28;;;;;;;13.63;11.33;;;1.30;99.90;;;;;;5026350;28;20203;-74
2021/12/26 06:56:54;;;;;;;14.27;11.70;;;1.30;99.90;;;;;;5029575;28;20582;-73
2021/12/26 06:59:19;;;;;;;12.83;11.43;;;1.20;99.90;;;;;;5026690;28;20272;-73
2021/12/26 07:01:45;;;;;;;12.80;11.37;;;1.20;99.90;;;;;;5023161;28;20183;-72
2021/12/26 07:04:10;;;;;;;14.47;12.27;;;1.20;99.90;;;;;;5040240;28;20181;-73
2021/12/26 07:06:36;;;;;;;14.67;12.00;;;1.20;99.90;;;;;;5024202;28;20206;-74
2021/12/26 07:09:02;;;;;;;12.83;11.17;;;1.20;99.90;;;;;;5024183;28;20183;-73
2021/12/26 07:11:28;;;;;;;12.13;10.57;;;1.20;99.90;;;;;;5024739;28;20205;-73
2021/12/26 07:13:56;;;;;;;13.90;11.83;;;1.10;99.90;;;;;;5025841;28;20300;-73
2021/12/26 07:16:23;;;;;;;13.23;11.27;;;1.20;99.90;;;;;;5024218;28;20196;-73
2021/12/26 07:18:50;;;;;;;13.47;11.20;;;1.20;99.90;;;;;;5051414;28;20239;-73
2021/12/26 07:21:16;;;;;;;12.87;11.50;;;1.20;99.90;;;;;;5027383;28;20195;-73
2021/12/26 07:23:42;;;;;;;14.27;12.03;;;1.20;99.90;;;;;;5020147;28;20264;-74
2021/12/26 07:26:08;;;;;;;13.73;11.43;;;1.20;99.90;;;;;;5023844;28;20275;-74
2021/12/26 07:28:33;;;;;;;14.27;12.07;;;1.30;99.90;;;;;;5027970;28;20177;-74
2021/12/26 07:30:59;;;;;;;13.10;10.67;;;1.30;99.90;;;;;;5030878;28;20303;-74
2021/12/26 07:33:25;;;;;;;13.40;11.67;;;1.30;99.90;;;;;;5024699;28;20202;-74
2021/12/26 07:35:51;;;;;;;13.47;11.47;;;1.30;99.90;;;;;;5020535;28;20595;-74
2021/12/26 07:38:18;;;;;;;12.17;10.27;;;1.40;99.90;;;;;;5024664;28;20181;-73
2021/12/26 07:40:45;;;;;;;14.03;11.07;;;1.40;99.90;;;;;;5021801;28;20231;-73
2021/12/26 07:43:12;;;;;;;14.80;12.47;;;1.50;99.90;;;;;;5032286;28;20177;-74
2021/12/26 07:45:37;;;;;;;13.23;11.23;;;1.50;99.90;;;;;;5025911;28;20184;-73
2021/12/26 07:48:03;;;;;;;13.87;11.80;;;1.50;99.90;;;;;;5039178;28;20600;-74
2021/12/26 07:50:29;;;;;;;13.27;11.07;;;1.60;99.90;;;;;;5039870;28;20189;-74
2021/12/26 07:52:59;;;;;;;13.93;12.47;;;1.60;99.90;;;;;;5027131;28;20232;-75
2021/12/26 07:55:24;;;;;;;14.73;11.87;;;1.60;99.90;;;;;;5038570;28;20691;-74
2021/12/26 07:57:50;;;;;;;14.50;12.07;;;1.60;99.90;;;;;;5037914;28;20177;-74
2021/12/26 08:00:19;;;;;;;13.13;11.40;;;1.60;99.90;;;;;;5031802;28;20265;-75
2021/12/26 08:02:45;;;;;;;15.43;12.20;;;1.70;99.90;;;;;;5068637;28;20204;-74
2021/12/26 08:05:10;;;;;;;13.83;10.73;;;1.70;99.90;;;;;;5033141;28;20208;-75
2021/12/26 08:07:36;;;;;;;11.67;10.43;;;1.70;99.90;;;;;;5027753;28;20636;-75
2021/12/26 08:10:03;;;;;;;14.07;11.33;;;1.80;99.90;;;;;;5026996;28;20219;-73
2021/12/26 08:12:29;;;;;;;14.27;11.53;;;1.90;99.90;;;;;;5033176;28;20697;-74
2021/12/26 08:14:55;;;;;;;14.20;11.80;;;2.00;99.90;;;;;;5032408;28;20177;-74
2021/12/26 08:17:21;;;;;;;13.67;10.70;;;2.10;99.90;;;;;;5027457;28;20183;-74
2021/12/26 08:19:46;;;;;;;12.33;10.63;;;2.10;99.90;;;;;;5033061;28;20192;-74
2021/12/26 08:22:12;;;;;;;15.27;11.23;;;2.10;99.90;;;;;;5033612;28;20195;-74
2021/12/26 08:24:38;;;;;;;12.70;11.37;;;2.10;99.90;;;;;;5033001;28;20216;-74
2021/12/26 08:27:04;;;;;;;14.50;11.87;;;2.20;99.90;;;;;;5026270;28;20260;-74
2021/12/26 08:29:29;;;;;;;13.17;11.47;;;2.10;99.90;;;;;;5029307;28;20554;-76
2021/12/26 08:31:58;;;;;;;12.43;10.37;;;2.20;99.90;;;;;;5028205;28;20186;-74
2021/12/26 08:34:23;;;;;;;12.80;11.00;;;2.30;99.90;;;;;;5040802;28;20298;-75
2021/12/26 08:36:58;;;;;;;13.27;11.53;;;2.40;99.90;;;;;;5031648;28;20265;-71
2021/12/26 08:39:28;;;;;;;14.17;11.57;;;2.50;99.90;;;;;;5027211;28;20214;-72
2021/12/26 08:41:55;;;;;;;12.00;10.70;;;2.50;99.90;;;;;;5027083;28;20358;-73
2021/12/26 08:44:21;;;;;;;13.33;10.93;;;2.70;99.90;;;;;;5031721;28;20184;-73
2021/12/26 08:46:47;;;;;;;13.60;11.47;;;2.60;99.90;;;;;;5032458;28;20200;-73
2021/12/26 08:49:14;;;;;;;12.97;10.73;;;2.70;99.90;;;;;;5029672;28;20209;-72
2021/12/26 08:51:40;;;;;;;12.27;10.97;;;2.80;99.90;;;;;;5027600;28;20231;-74
2021/12/26 08:54:06;;;;;;;14.53;11.07;;;2.80;99.90;;;;;;5032557;28;20717;-76
2021/12/26 08:56:31;;;;;;;13.80;10.40;;;2.90;99.90;;;;;;5028422;28;20165;-75
2021/12/26 08:58:57;;;;;;;11.83;10.47;;;3.00;99.90;;;;;;5029309;28;20217;-75
2021/12/26 09:01:23;;;;;;;11.90;9.83;;;3.10;99.90;;;;;;5023756;28;20211;-74
2021/12/26 09:03:48;;;;;;;11.77;10.33;;;3.30;99.90;;;;;;5027359;28;20177;-74
2021/12/26 09:06:14;;;;;;;11.57;10.07;;;3.30;99.90;;;;;;5035972;28;20226;-71
2021/12/26 09:08:40;;;;;;;12.03;10.30;;;3.40;99.90;;;;;;5027665;28;20188;-71
2021/12/26 09:11:05;;;;;;;12.07;9.90;;;3.40;99.90;;;;;;5030496;28;20215;-71
2021/12/26 09:13:33;;;;;;;11.20;9.70;;;3.40;99.90;;;;;;5028734;28;20212;-71
2021/12/26 09:15:58;;;;;;;10.77;9.50;;;3.60;99.90;;;;;;5027328;28;20200;-70
2021/12/26 09:18:24;;;;;;;10.50;8.73;;;3.60;99.90;;;;;;5031344;28;20541;-71
2021/12/26 09:20:50;;;;;;;9.67;8.27;;;3.80;99.90;;;;;;5031631;28;20189;-72
2021/12/26 09:23:16;;;;;;;11.30;9.32;;;3.80;99.90;;;;;;5033255;28;20531;-72
2021/12/26 09:25:42;;;;;;;12.87;9.97;;;3.90;99.90;;;;;;5028743;28;20204;-73
2021/12/26 09:28:09;;;;;;;11.50;9.47;;;3.90;99.90;;;;;;5028674;28;20686;-74
2021/12/26 09:30:36;;;;;;;10.63;8.87;;;4.00;99.90;;;;;;5023132;28;20664;-72
2021/12/26 09:33:02;;;;;;;11.43;9.70;;;4.10;99.90;;;;;;5028754;28;20299;-74
2021/12/26 09:35:27;;;;;;;12.47;8.70;;;4.10;99.90;;;;;;5035773;28;20264;-74
2021/12/26 09:37:53;;;;;;;11.68;9.82;;;4.20;99.90;;;;;;5028400;28;20169;-74
2021/12/26 09:40:19;;;;;;;12.45;9.50;;;4.30;99.90;;;;;;5027761;28;20196;-74
2021/12/26 09:42:45;;;;;;;10.95;9.43;;;4.40;99.90;;;;;;5024874;28;20564;-74
2021/12/26 09:45:13;;;;;;;10.52;9.43;;;4.30;99.90;;;;;;5026191;28;20187;-74
2021/12/26 09:47:40;;;;;;;11.50;9.37;;;4.30;99.90;;;;;;5027129;28;20180;-73
2021/12/26 09:50:08;;;;;;;10.98;9.82;;;4.30;99.90;;;;;;5030279;28;20204;-73
2021/12/26 09:52:35;;;;;;;10.02;8.70;;;5.70;99.90;;;;;;5029071;28;20201;-73
2021/12/26 09:55:01;;;;;;;11.45;8.75;;;7.30;99.90;;;;;;5017855;28;20231;-73
2021/12/26 09:57:28;;;;;;;9.27;8.27;;;8.70;99.90;;;;;;5029410;28;20180;-72
2021/12/26 09:59:54;;;;;;;9.05;8.13;;;10.10;99.90;;;;;;5027207;28;20205;-71
2021/12/26 10:02:20;;;;;;;9.63;8.45;;;11.80;99.90;;;;;;5016871;28;20187;-71
2021/12/26 10:04:48;;;;;;;9.57;8.57;;;12.90;99.90;;;;;;5019376;28;20256;-71
2021/12/26 10:07:23;;;;;;;9.05;8.15;;;12.40;99.90;;;;;;5026053;28;20200;-71
2021/12/26 10:09:51;;;;;;;8.80;8.00;;;12.80;99.90;;;;;;5033631;28;20209;-73
2021/12/26 10:12:20;;;;;;;8.40;7.55;;;13.20;99.90;;;;;;5032996;28;20254;-73
2021/12/26 10:14:54;;;;;;;8.57;7.68;;;13.30;99.60;;;;;;5028512;28;20182;-73
2021/12/26 10:17:26;;;;;;;7.88;7.18;;;13.20;96.40;;;;;;5031557;28;20180;-73
2021/12/26 10:19:59;;;;;;;9.57;8.02;;;12.10;98.80;;;;;;5032105;28;20200;-74
2021/12/26 10:22:29;;;;;;;7.63;6.93;;;11.70;98.90;;;;;;5028387;28;20230;-73
2021/12/26 10:24:55;;;;;;;8.48;7.65;;;12.70;98.40;;;;;;5030596;28;20179;-75
2021/12/26 10:27:27;;;;;;;8.25;7.47;;;13.40;93.70;;;;;;5019601;28;20664;-74
2021/12/26 10:29:55;;;;;;;8.10;7.30;;;13.00;93.80;;;;;;5030566;28;20239;-76
2021/12/26 10:32:33;;;;;;;7.93;7.13;;;13.80;92.60;;;;;;5037517;28;20209;-77
2021/12/26 10:35:04;;;;;;;7.93;7.22;;;14.00;90.70;;;;;;5026105;28;20204;-76
2021/12/26 10:37:35;;;;;;;7.72;7.03;;;14.30;91.00;;;;;;5028007;28;20204;-76
2021/12/26 10:40:06;;;;;;;7.60;6.88;;;14.50;87.70;;;;;;5027329;28;20213;-76
2021/12/26 10:42:35;;;;;;;8.68;7.88;;;14.30;89.10;;;;;;5018460;28;20188;-76
2021/12/26 10:45:13;;;;;;;8.27;7.45;;;14.10;88.20;;;;;;5023251;28;20593;-77
2021/12/26 10:47:41;;;;;;;8.07;7.28;;;13.50;88.10;;;;;;5025148;28;20522;-76
2021/12/26 10:50:15;;;;;;;7.35;6.63;;;12.90;88.50;;;;;;5027565;28;20201;-76
2021/12/26 10:52:48;;;;;;;8.55;7.65;;;12.70;90.00;;;;;;5024063;28;20196;-77
2021/12/26 10:55:19;;;;;;;8.43;7.63;;;11.60;91.20;;;;;;5025873;28;20177;-76
2021/12/26 10:57:45;;;;;;;10.02;7.25;;;11.30;92.80;;;;;;5030375;28;20176;-76
2021/12/26 11:00:13;;;;;;;8.50;7.70;;;11.00;93.90;;;;;;5026531;28;20212;-78
2021/12/26 11:02:42;;;;;;;8.98;8.07;;;11.00;93.40;;;;;;5018803;28;20217;-77
2021/12/26 11:05:17;;;;;;;9.52;8.52;;;10.70;95.50;;;;;;5035356;28;20200;-77
2021/12/26 11:07:58;;;;;;;9.50;8.15;;;10.10;94.10;;;;;;5036529;28;20172;-77
2021/12/26 11:10:37;;;;;;;9.10;7.97;;;9.90;96.60;;;;;;5024376;28;20745;-77
2021/12/26 11:13:05;;;;;;;8.98;8.07;;;9.90;96.20;;;;;;5021105;28;20213;-77
2021/12/26 11:15:37;;;;;;;9.75;8.75;;;9.60;97.30;;;;;;5027245;28;20177;-77
2021/12/26 11:18:05;;;;;;;8.15;7.35;;;9.50;97.70;;;;;;5034362;28;20212;-76
2021/12/26 11:20:46;;;;;;;8.43;7.63;;;9.30;98.90;;;;;;5032702;28;20196;-76
2021/12/26 11:23:15;;;;;;;9.10;8.20;;;9.10;99.40;;;;;;5034071;28;20271;-76
2021/12/26 11:25:51;;;;;;;8.30;7.40;;;8.80;99.70;;;;;;5034176;28;20183;-77
2021/12/26 11:28:26;;;;;;;6.57;5.97;;;8.50;99.70;;;;;;5034651;28;20644;-77
2021/12/26 11:30:57;;;;;;;6.90;6.18;;;8.50;99.20;;;;;;5028203;28;20210;-77
2021/12/26 11:33:23;;;;;;;7.43;6.68;;;7.60;97.70;;;;;;5037577;28;20705;-77
2021/12/26 11:35:51;;;;;;;8.05;7.25;;;7.30;99.90;;;;;;5028616;28;20168;-77
2021/12/26 11:38:21;;;;;;;9.27;8.27;;;7.50;99.90;;;;;;5026713;28;20177;-77
2021/12/26 11:40:54;;;;;;;9.55;8.60;;;7.70;99.90;;;;;;5033205;28;20691;-77
2021/12/26 11:43:25;;;;;;;10.70;8.55;;;7.70;99.90;;;;;;5028991;28;20223;-77
2021/12/26 11:46:01;;;;;;;11.65;10.02;;;8.00;99.90;;;;;;5027104;28;20555;-77
2021/12/26 11:48:39;;;;;;;9.02;8.07;;;8.00;99.90;;;;;;5050403;28;20179;-77
2021/12/26 11:51:08;;;;;;;9.20;8.27;;;7.90;99.90;;;;;;5027104;28;20212;-77
2021/12/26 11:53:59;;;;;;;8.25;7.45;;;7.70;99.90;;;;;;5024186;28;20196;-77
2021/12/26 11:56:41;;;;;;;8.38;7.22;;;7.60;99.90;;;;;;5033458;28;20715;-77
2021/12/26 11:59:30;;;;;;;9.38;7.85;;;7.50;99.90;;;;;;5037010;28;20200;-76
2021/12/26 12:01:55;;;;;;;7.97;7.07;;;7.30;99.90;;;;;;5035616;28;20180;-77
2021/12/26 12:04:24;;;;;;;8.65;7.43;;;7.30;99.90;;;;;;5047081;28;20173;-77
2021/12/26 12:06:54;;;;;;;7.60;6.85;;;7.30;99.90;;;;;;5033773;28;20596;-77
2021/12/26 12:09:35;;;;;;;9.85;7.93;;;7.30;99.90;;;;;;5021843;28;20231;-77
2021/12/26 12:12:02;;;;;;;8.98;8.05;;;7.70;99.90;;;;;;5033828;28;20714;-77
2021/12/26 12:14:54;;;;;;;8.55;7.57;;;8.10;99.90;;;;;;5018197;28;20200;-74
2021/12/26 12:17:26;;;;;;;6.97;6.25;;;8.30;99.90;;;;;;5026992;28;20555;-75
2021/12/26 12:20:10;;;;;;;6.85;6.10;;;9.10;99.90;;;;;;5027359;28;20189;-75
2021/12/26 12:22:37;;;;;;;8.07;6.88;;;9.70;99.90;;;;;;5026884;28;20182;-76
2021/12/26 12:25:33;;;;;;;8.00;7.18;;;10.10;97.90;;;;;;5028099;28;20188;-76
2021/12/26 12:28:33;;;;;;;8.07;6.90;;;10.10;97.80;;;;;;5034096;28;20268;-75
2021/12/26 12:31:16;;;;;;;6.97;6.28;;;11.20;96.30;;;;;;5029563;28;20218;-77
2021/12/26 12:33:43;;;;;;;6.72;6.03;;;13.20;90.60;;;;;;5024446;28;20205;-77
2021/12/26 12:36:25;;;;;;;8.15;7.25;;;13.60;87.00;;;;;;5027146;28;20177;-77
2021/12/26 12:38:51;;;;;;;7.63;6.93;;;13.30;85.00;;;;;;5028022;28;20173;-76
2021/12/26 12:41:29;;;;;;;8.93;7.35;;;12.80;85.10;;;;;;5027274;28;20284;-77
2021/12/26 12:43:57;;;;;;;8.20;7.40;;;12.10;87.60;;;;;;5026878;28;20236;-77
2021/12/26 12:46:23;;;;;;;7.20;6.50;;;11.70;89.70;;;;;;5033758;28;20180;-76
2021/12/26 12:49:03;;;;;;;8.27;7.43;;;11.40;91.60;;;;;;5031572;28;20238;-78
2021/12/26 12:51:40;;;;;;;10.77;7.13;;;10.80;91.50;;;;;;5029042;28;20204;-78
2021/12/26 12:54:18;;;;;;;8.82;7.93;;;10.40;93.20;;;;;;5027099;28;20209;-78
2021/12/26 12:56:44;;;;;;;10.13;7.68;;;9.60;94.30;;;;;;5029248;28;20183;-78